Time;durP1;ratioP1;P1;durP2;ratioP2;P2;SDS_P1;SDS_P2;PMS_P1;PMS_P2;Temp;Humidity;BMP_temperature;BMP_pressure;BME280_temperature;BME280_humidity;BME280_pressure;Samples;Min_cycle;Max_cycle;Signal;HPM_P1;HPM_P2
2023/10/21 00:00:17;;;;;;;1.00;0.67;;;;;;;16.15;nan;96989.78;4939672;28;20223;-79
2023/10/21 00:02:42;;;;;;;1.58;0.60;;;;;;;16.15;nan;97003.00;4941455;28;20206;-79
2023/10/21 00:05:08;;;;;;;0.60;0.50;;;;;;;16.15;nan;96999.56;4940709;29;20214;-79
2023/10/21 00:07:33;;;;;;;1.07;0.60;;;;;;;16.16;nan;97001.19;4941357;28;20214;-79
2023/10/21 00:09:59;;;;;;;0.77;0.60;;;;;;;16.16;nan;96998.53;4941803;28;20207;-79
2023/10/21 00:12:25;;;;;;;0.90;0.70;;;;;;;16.18;nan;97015.03;4941372;28;20220;-80
2023/10/21 00:14:50;;;;;;;1.00;0.80;;;;;;;16.20;nan;97025.44;4940966;28;20289;-79
2023/10/21 00:17:16;;;;;;;1.10;0.63;;;;;;;16.19;nan;97026.44;4942522;29;20666;-79
2023/10/21 00:19:41;;;;;;;0.80;0.70;;;;;;;16.20;nan;97034.19;4944491;28;20229;-79
2023/10/21 00:22:06;;;;;;;1.03;0.77;;;;;;;16.27;nan;97035.03;4939774;29;20205;-80
2023/10/21 00:24:32;;;;;;;1.53;0.60;;;;;;;16.35;nan;97040.16;4941612;28;20197;-79
2023/10/21 00:26:57;;;;;;;0.63;0.57;;;;;;;16.46;nan;97054.69;4940245;28;20688;-79
2023/10/21 00:29:23;;;;;;;0.80;0.60;;;;;;;16.48;nan;97062.44;4935991;28;20214;-79
2023/10/21 00:31:48;;;;;;;0.70;0.57;;;;;;;16.51;nan;97070.00;4937927;28;20205;-79
2023/10/21 00:34:13;;;;;;;0.77;0.77;;;;;;;16.51;nan;97070.00;4937206;28;20203;-78
2023/10/21 00:36:39;;;;;;;0.90;0.70;;;;;;;16.54;nan;97080.22;4940228;28;20202;-79
2023/10/21 00:39:10;;;;;;;2.23;0.60;;;;;;;16.54;nan;97081.00;4932972;29;20215;-78
2023/10/21 00:41:36;;;;;;;0.75;0.68;;;;;;;16.53;nan;97100.59;4931144;28;20861;-79
2023/10/21 00:44:02;;;;;;;3.57;0.90;;;;;;;16.55;nan;97097.72;4930327;28;20206;-79
2023/10/21 00:46:27;;;;;;;1.37;0.60;;;;;;;16.56;nan;97102.03;4930103;28;20492;-78
2023/10/21 00:48:52;;;;;;;0.60;0.50;;;;;;;16.58;nan;97116.72;4935412;28;20237;-79
2023/10/21 00:51:19;;;;;;;1.67;0.77;;;;;;;16.60;nan;97119.97;4938030;28;20218;-79
2023/10/21 00:53:45;;;;;;;0.80;0.60;;;;;;;16.63;nan;97132.00;4945431;28;20234;-79
2023/10/21 00:56:11;;;;;;;0.68;0.57;;;;;;;16.67;nan;97132.47;4930601;28;20517;-79
2023/10/21 00:58:36;;;;;;;1.20;0.63;;;;;;;16.66;nan;97144.06;4931225;28;20212;-79
2023/10/21 01:01:08;;;;;;;2.20;0.80;;;;;;;16.66;nan;97144.06;4930841;28;20726;-79
2023/10/21 01:03:34;;;;;;;0.75;0.60;;;;;;;16.66;nan;97159.97;4928021;28;20289;-79
2023/10/21 01:06:00;;;;;;;0.65;0.57;;;;;;;16.69;nan;97159.56;4927785;28;20186;-79
2023/10/21 01:08:26;;;;;;;1.20;0.80;;;;;;;16.68;nan;97160.59;4929064;28;23468;-79
2023/10/21 01:10:51;;;;;;;5.70;0.80;;;;;;;16.65;nan;97176.88;4930885;28;20225;-78
2023/10/21 01:13:17;;;;;;;0.83;0.63;;;;;;;16.66;nan;97187.31;4933731;28;20238;-79
2023/10/21 01:15:43;;;;;;;1.73;0.70;;;;;;;16.62;nan;97177.28;4937571;28;20232;-79
2023/10/21 01:18:08;;;;;;;8.50;0.90;;;;;;;16.62;nan;97183.41;4936745;28;20207;-79
2023/10/21 01:20:41;;;;;;;3.23;1.77;;;;;;;16.61;nan;97192.38;4935360;29;20471;-78
2023/10/21 01:23:07;;;;;;;1.08;0.75;;;;;;;16.60;nan;97201.31;4933569;28;20199;-79
2023/10/21 01:25:33;;;;;;;1.17;0.60;;;;;;;16.59;nan;97200.50;4937688;29;20352;-79
2023/10/21 01:27:59;;;;;;;1.70;0.63;;;;;;;16.55;nan;97188.66;4936630;28;20337;-79
2023/10/21 01:30:25;;;;;;;0.90;0.80;;;;;;;16.54;nan;97202.09;4939364;29;20221;-79
2023/10/21 01:32:51;;;;;;;2.40;0.70;;;;;;;16.50;nan;97206.16;4933810;28;20218;-79
2023/10/21 01:35:17;;;;;;;1.73;0.80;;;;;;;16.45;nan;97209.41;4932939;28;20473;-79
2023/10/21 01:37:44;;;;;;;1.80;0.70;;;;;;;16.42;nan;97208.94;4942340;28;20497;-79
2023/10/21 01:40:10;;;;;;;0.80;0.60;;;;;;;16.40;nan;97211.81;4935635;28;20675;-81
2023/10/21 01:42:41;;;;;;;0.70;0.60;;;;;;;16.38;nan;97211.16;4936715;28;20193;-79
2023/10/21 01:45:09;;;;;;;2.78;0.73;;;;;;;16.37;nan;97223.59;4935360;29;20198;-81
2023/10/21 01:47:35;;;;;;;0.70;0.70;;;;;;;16.37;nan;97212.19;4933273;28;20324;-79
2023/10/21 01:50:03;;;;;;;1.08;0.80;;;;;;;16.37;nan;97215.66;4952660;28;20210;-79
2023/10/21 01:52:29;;;;;;;0.88;0.60;;;;;;;16.34;nan;97204.63;4936745;28;20244;-79
2023/10/21 01:54:55;;;;;;;3.45;3.25;;;;;;;16.36;nan;97210.53;4936521;28;20273;-79
2023/10/21 01:57:20;;;;;;;0.70;0.70;;;;;;;16.35;nan;97214.22;4935442;28;20227;-80
2023/10/21 01:59:46;;;;;;;0.90;0.70;;;;;;;16.34;nan;97216.03;4922347;29;20210;-80
2023/10/21 02:02:12;;;;;;;0.80;0.70;;;;;;;16.33;nan;97222.34;4931564;28;20342;-79
2023/10/21 02:04:37;;;;;;;0.70;0.67;;;;;;;16.28;nan;97214.16;4924607;29;20230;-79
2023/10/21 02:07:03;;;;;;;0.90;0.70;;;;;;;16.29;nan;97226.41;4918993;28;20721;-79
2023/10/21 02:09:28;;;;;;;0.90;0.70;;;;;;;16.28;nan;97223.94;4919398;28;20766;-79
2023/10/21 02:11:57;;;;;;;0.80;0.80;;;;;;;16.28;nan;97226.56;4916448;28;20209;-79
2023/10/21 02:14:23;;;;;;;0.80;0.70;;;;;;;16.27;nan;97227.59;4925712;28;20214;-78
2023/10/21 02:16:53;;;;;;;0.80;0.70;;;;;;;16.26;nan;97231.28;4919468;28;20213;-79
2023/10/21 02:19:19;;;;;;;0.80;0.60;;;;;;;16.24;nan;97243.88;4930674;28;20475;-80
2023/10/21 02:21:46;;;;;;;0.70;0.60;;;;;;;16.24;nan;97249.19;4986744;23;20227;-76
2023/10/21 02:24:11;;;;;;;2.15;0.80;;;;;;;16.19;nan;97246.28;4942287;28;20198;-76
2023/10/21 02:26:36;;;;;;;0.70;0.60;;;;;;;16.17;nan;97251.75;4942389;28;20262;-75
2023/10/21 02:29:03;;;;;;;0.80;0.67;;;;;;;16.17;nan;97261.53;4938396;28;20239;-76
2023/10/21 02:31:29;;;;;;;0.90;0.60;;;;;;;16.18;nan;97265.84;4937220;28;20226;-76
2023/10/21 02:33:54;;;;;;;1.53;0.70;;;;;;;16.18;nan;97271.13;4951409;28;20211;-75
2023/10/21 02:36:20;;;;;;;1.27;0.80;;;;;;;16.20;nan;97269.91;4943404;28;20442;-76
2023/10/21 02:38:51;;;;;;;0.90;0.70;;;;;;;16.25;nan;97274.63;4961702;28;20200;-76
2023/10/21 02:41:16;;;;;;;1.48;0.70;;;;;;;16.25;nan;97280.75;4944274;28;20206;-76
2023/10/21 02:43:42;;;;;;;0.70;0.60;;;;;;;16.28;nan;97290.16;4942908;28;20241;-77
2023/10/21 02:46:08;;;;;;;0.70;0.60;;;;;;;16.27;nan;97285.88;4949287;28;20198;-75
2023/10/21 02:48:34;;;;;;;2.83;0.80;;;;;;;16.25;nan;97294.00;4952707;28;20208;-75
2023/10/21 02:51:07;;;;;;;0.80;0.63;;;;;;;16.26;nan;97294.84;4947690;28;20212;-76
2023/10/21 02:53:33;;;;;;;0.95;0.82;;;;;;;16.25;nan;97299.28;4949340;28;20461;-76
2023/10/21 02:55:59;;;;;;;1.00;0.63;;;;;;;16.24;nan;97300.31;4948040;28;20269;-75
2023/10/21 02:58:25;;;;;;;0.83;0.80;;;;;;;16.20;nan;97293.75;4950154;28;20460;-76
2023/10/21 03:00:50;;;;;;;1.13;0.73;;;;;;;16.20;nan;97295.59;4949763;28;20235;-75
2023/10/21 03:03:15;;;;;;;2.57;0.80;;;;;;;16.15;nan;97317.34;4957265;28;20203;-75
2023/10/21 03:05:42;;;;;;;1.42;0.80;;;;;;;16.12;nan;97318.56;4957726;28;20183;-76
2023/10/21 03:08:07;;;;;;;2.60;0.70;;;;;;;16.08;nan;97319.91;4960845;28;20212;-75
2023/10/21 03:10:36;;;;;;;0.90;0.60;;;;;;;16.09;nan;97336.63;4958148;28;20823;-76
2023/10/21 03:13:01;;;;;;;0.68;0.63;;;;;;;16.07;nan;97330.72;4958899;28;20701;-76
2023/10/21 03:15:27;;;;;;;0.70;0.60;;;;;;;16.06;nan;97335.19;4959231;28;20251;-76
2023/10/21 03:17:52;;;;;;;0.70;0.63;;;;;;;16.09;nan;97336.63;4957998;28;20650;-76
2023/10/21 03:20:18;;;;;;;1.57;0.70;;;;;;;16.10;nan;97341.75;4960201;28;20237;-77
2023/10/21 03:22:43;;;;;;;1.17;0.80;;;;;;;16.13;nan;97345.84;4959087;28;20338;-76
2023/10/21 03:25:09;;;;;;;0.70;0.60;;;;;;;16.15;nan;97344.66;4957799;28;20192;-76
2023/10/21 03:27:35;;;;;;;2.50;0.70;;;;;;;16.13;nan;97349.31;4953004;28;20193;-76
2023/10/21 03:30:00;;;;;;;0.70;0.60;;;;;;;16.16;nan;97353.41;4957571;28;20212;-76
2023/10/21 03:32:26;;;;;;;0.90;0.70;;;;;;;16.15;nan;97352.59;4959569;28;20212;-76
2023/10/21 03:34:51;;;;;;;0.60;0.50;;;;;;;16.12;nan;97357.44;4960161;28;20279;-76
2023/10/21 03:37:16;;;;;;;1.63;0.60;;;;;;;16.12;nan;97360.09;4959909;28;20210;-76
2023/10/21 03:39:42;;;;;;;1.33;0.70;;;;;;;16.11;nan;97363.75;4960923;28;20209;-76
2023/10/21 03:42:07;;;;;;;0.73;0.60;;;;;;;16.08;nan;97353.53;4959434;28;20206;-76
2023/10/21 03:44:33;;;;;;;1.23;0.90;;;;;;;16.04;nan;97355.75;4960397;28;20203;-75
2023/10/21 03:46:59;;;;;;;1.37;0.90;;;;;;;16.04;nan;97370.78;4958314;28;20275;-76
2023/10/21 03:49:25;;;;;;;0.90;0.70;;;;;;;16.03;nan;97363.88;4957926;28;20618;-76
2023/10/21 03:51:50;;;;;;;0.90;0.60;;;;;;;16.01;nan;97385.22;4958457;28;20696;-76
2023/10/21 03:54:15;;;;;;;0.70;0.60;;;;;;;15.98;nan;97382.13;4954715;28;20226;-76
2023/10/21 03:56:41;;;;;;;0.90;0.70;;;;;;;16.00;nan;97382.78;4957136;28;20247;-76
2023/10/21 03:59:07;;;;;;;1.47;0.80;;;;;;;15.97;nan;97376.03;4956791;28;20236;-76
2023/10/21 04:01:32;;;;;;;0.70;0.60;;;;;;;15.98;nan;97382.13;4954231;28;20634;-76
2023/10/21 04:03:58;;;;;;;2.30;0.90;;;;;;;15.96;nan;97394.72;4954642;28;21092;-76
2023/10/21 04:06:23;;;;;;;1.00;0.70;;;;;;;15.97;nan;97401.69;4953621;28;20454;-76
2023/10/21 04:08:48;;;;;;;0.60;0.50;;;;;;;15.93;nan;97406.50;4957039;28;20236;-76
2023/10/21 04:11:14;;;;;;;0.60;0.50;;;;;;;15.94;nan;97413.47;4954638;28;20234;-76
2023/10/21 04:13:39;;;;;;;0.70;0.60;;;;;;;15.95;nan;97409.81;4955507;28;20296;-76
2023/10/21 04:16:06;;;;;;;0.70;0.60;;;;;;;15.96;nan;97421.22;4954256;28;20312;-76
2023/10/21 04:18:31;;;;;;;0.80;0.73;;;;;;;15.97;nan;97433.47;4956722;28;20811;-76
2023/10/21 04:20:56;;;;;;;0.70;0.70;;;;;;;15.95;nan;97430.16;4957954;28;20227;-76
2023/10/21 04:23:22;;;;;;;1.37;0.60;;;;;;;15.93;nan;97428.53;4953803;28;20198;-76
2023/10/21 04:25:47;;;;;;;0.70;0.60;;;;;;;15.93;nan;97427.69;4955065;28;20198;-76
2023/10/21 04:28:13;;;;;;;0.60;0.50;;;;;;;15.95;nan;97440.75;4956284;28;20707;-76
2023/10/21 04:30:38;;;;;;;0.90;0.77;;;;;;;15.96;nan;97448.53;4950497;28;20819;-75
2023/10/21 04:33:04;;;;;;;0.70;0.67;;;;;;;15.98;nan;97440.38;4945974;28;20276;-76
2023/10/21 04:35:30;;;;;;;0.70;0.70;;;;;;;16.00;nan;97448.97;4946093;28;20209;-76
2023/10/21 04:37:56;;;;;;;0.80;0.70;;;;;;;16.04;nan;97451.09;4944595;28;20245;-76
2023/10/21 04:40:21;;;;;;;0.90;0.75;;;;;;;16.07;nan;97448.06;4945781;28;20228;-76
2023/10/21 04:42:47;;;;;;;0.90;0.80;;;;;;;16.07;nan;97461.28;4946166;28;20621;-76
2023/10/21 04:45:12;;;;;;;0.97;0.70;;;;;;;16.07;nan;97461.28;4945420;28;20197;-76
2023/10/21 04:47:38;;;;;;;1.57;0.73;;;;;;;16.09;nan;97472.53;4944711;28;20202;-76
2023/10/21 04:50:05;;;;;;;1.23;0.50;;;;;;;16.11;nan;97467.84;4946543;28;20205;-75
2023/10/21 04:52:31;;;;;;;1.08;1.02;;;;;;;16.08;nan;97472.72;4945310;28;20239;-76
2023/10/21 04:54:56;;;;;;;1.02;0.73;;;;;;;16.06;nan;97474.72;4944876;28;20205;-76
2023/10/21 04:57:22;;;;;;;2.00;0.83;;;;;;;16.01;nan;97483.19;4947364;28;20206;-75
2023/10/21 04:59:47;;;;;;;0.83;0.60;;;;;;;16.00;nan;97494.00;4946009;28;20572;-76
2023/10/21 05:02:15;;;;;;;0.80;0.60;;;;;;;15.93;nan;97502.69;4952894;28;20206;-76
2023/10/21 05:04:41;;;;;;;0.93;0.60;;;;;;;15.89;nan;97511.16;4951981;28;20202;-76
2023/10/21 05:07:06;;;;;;;0.60;0.53;;;;;;;15.84;nan;97519.63;4952462;28;20733;-76
2023/10/21 05:09:32;;;;;;;0.90;0.80;;;;;;;15.79;nan;97519.34;4954009;28;20202;-75
2023/10/21 05:11:58;;;;;;;0.70;0.57;;;;;;;15.76;nan;97537.44;4952117;28;20472;-76
2023/10/21 05:14:23;;;;;;;0.60;0.50;;;;;;;15.73;nan;97540.44;4952445;28;20199;-76
2023/10/21 05:16:48;;;;;;;0.60;0.60;;;;;;;15.67;nan;97537.50;4951565;28;20275;-77
2023/10/21 05:19:14;;;;;;;0.70;0.60;;;;;;;15.65;nan;97543.97;4952112;28;20212;-76
2023/10/21 05:21:39;;;;;;;1.63;0.80;;;;;;;15.60;nan;97544.50;4952915;28;20246;-75
2023/10/21 05:24:05;;;;;;;1.37;0.70;;;;;;;15.56;nan;97553.00;4952949;28;20255;-75
2023/10/21 05:26:30;;;;;;;1.87;0.50;;;;;;;15.51;nan;97544.78;4950284;28;20284;-74
2023/10/21 05:28:57;;;;;;;0.80;0.60;;;;;;;15.46;nan;97574.41;4954929;28;20728;-75
2023/10/21 05:31:23;;;;;;;0.70;0.70;;;;;;;15.40;nan;97575.13;4964439;28;20212;-75
2023/10/21 05:33:49;;;;;;;0.60;0.60;;;;;;;15.38;nan;97575.28;4953419;28;20199;-75
2023/10/21 05:36:14;;;;;;;0.80;0.70;;;;;;;15.35;nan;97588.06;4949556;28;20219;-74
2023/10/21 05:38:39;;;;;;;0.83;0.60;;;;;;;15.33;nan;97595.34;4949501;28;20192;-74
2023/10/21 05:41:05;;;;;;;2.77;0.60;;;;;;;15.32;nan;97604.28;4949677;28;20218;-74
2023/10/21 05:43:30;;;;;;;0.70;0.70;;;;;;;15.29;nan;97604.66;4947928;28;20201;-74
2023/10/21 05:45:56;;;;;;;2.90;0.90;;;;;;;15.25;nan;97610.25;4953567;28;20919;-74
2023/10/21 05:48:22;;;;;;;1.70;0.70;;;;;;;15.24;nan;97619.22;4950857;28;20201;-74
2023/10/21 05:50:48;;;;;;;1.00;0.60;;;;;;;15.23;nan;97614.94;4953131;28;20205;-74
2023/10/21 05:53:13;;;;;;;2.00;0.70;;;;;;;15.19;nan;97621.56;4951450;28;20224;-75
2023/10/21 05:55:42;;;;;;;0.77;0.60;;;;;;;15.18;nan;97633.13;4951530;28;20662;-74
2023/10/21 05:58:09;;;;;;;0.80;0.70;;;;;;;15.15;nan;97638.78;4952542;28;20207;-74
2023/10/21 06:00:35;;;;;;;4.95;0.82;;;;;;;15.14;nan;97628.38;4951583;28;20215;-74
2023/10/21 06:03:00;;;;;;;1.30;0.70;;;;;;;15.13;nan;97632.84;4953948;28;20204;-74
2023/10/21 06:05:25;;;;;;;0.60;0.57;;;;;;;15.11;nan;97642.75;4947080;28;20242;-75
2023/10/21 06:07:51;;;;;;;2.50;0.80;;;;;;;15.07;nan;97643.28;4947471;28;20250;-74
2023/10/21 06:10:16;;;;;;;1.33;0.90;;;;;;;15.05;nan;97656.69;4945569;28;20212;-74
2023/10/21 06:12:43;;;;;;;0.90;0.80;;;;;;;15.03;nan;97662.13;4952733;28;20192;-74
2023/10/21 06:15:09;;;;;;;2.03;1.20;;;;;;;15.03;nan;97670.06;4953745;28;20710;-74
2023/10/21 06:17:34;;;;;;;0.90;0.80;;;;;;;15.02;nan;97672.91;4949768;28;20300;-74
2023/10/21 06:20:00;;;;;;;5.13;1.60;;;;;;;15.01;nan;97681.81;4953386;28;20464;-74
2023/10/21 06:22:26;;;;;;;4.40;1.43;;;;;;;15.03;nan;97679.81;4953983;28;20674;-74
2023/10/21 06:24:51;;;;;;;2.43;1.30;;;;;;;15.03;nan;97690.41;4955094;28;20196;-74
2023/10/21 06:27:16;;;;;;;2.20;1.17;;;;;;;15.05;nan;97688.41;4955812;28;20474;-74
2023/10/21 06:29:42;;;;;;;2.90;1.17;;;;;;;15.06;nan;97690.03;4958381;28;20199;-74
2023/10/21 06:32:08;;;;;;;1.90;0.90;;;;;;;15.07;nan;97699.66;4954576;28;20223;-74
2023/10/21 06:34:34;;;;;;;1.33;1.08;;;;;;;15.09;nan;97699.47;4946861;28;20212;-74
2023/10/21 06:37:00;;;;;;;1.50;0.83;;;;;;;15.10;nan;97691.38;4945626;28;20201;-75
2023/10/21 06:39:25;;;;;;;1.97;0.80;;;;;;;15.12;nan;97694.66;4946934;28;21241;-74
2023/10/21 06:41:51;;;;;;;1.63;0.80;;;;;;;15.16;nan;97700.44;4947525;28;20382;-74
2023/10/21 06:44:17;;;;;;;2.08;0.90;;;;;;;15.16;nan;97706.53;4945757;28;20327;-74
2023/10/21 06:46:43;;;;;;;1.97;1.20;;;;;;;15.18;nan;97715.13;4955391;28;20319;-74
2023/10/21 06:49:09;;;;;;;1.77;0.70;;;;;;;15.23;nan;97711.97;4956243;28;20204;-76
2023/10/21 06:51:36;;;;;;;1.30;1.00;;;;;;;15.28;nan;97720.19;4957816;28;21043;-74
2023/10/21 06:54:02;;;;;;;5.40;1.33;;;;;;;15.30;nan;97734.06;4956753;28;20440;-74
2023/10/21 06:56:27;;;;;;;5.40;1.00;;;;;;;15.33;nan;97739.00;4953085;28;20239;-75
2023/10/21 06:58:53;;;;;;;2.50;1.00;;;;;;;15.32;nan;97739.19;4954713;28;20765;-74
2023/10/21 07:01:18;;;;;;;1.70;1.30;;;;;;;15.35;nan;97749.41;4945193;28;20321;-74
2023/10/21 07:03:43;;;;;;;2.43;1.13;;;;;;;15.37;nan;97758.00;4956052;28;20174;-76
2023/10/21 07:06:09;;;;;;;1.33;1.10;;;;;;;15.38;nan;97755.19;4951012;28;20887;-74
2023/10/21 07:08:35;;;;;;;1.60;1.37;;;;;;;15.40;nan;97768.25;4954394;28;21274;-74
2023/10/21 07:11:00;;;;;;;1.50;0.90;;;;;;;15.39;nan;97759.50;4955199;28;20302;-74
2023/10/21 07:13:26;;;;;;;0.80;0.60;;;;;;;15.39;nan;97763.94;4953722;28;20703;-75
2023/10/21 07:15:51;;;;;;;5.80;0.90;;;;;;;15.41;nan;97775.19;4956482;28;20197;-74
2023/10/21 07:18:17;;;;;;;0.87;0.70;;;;;;;15.43;nan;97775.84;4955740;28;20849;-75
2023/10/21 07:20:43;;;;;;;1.20;0.90;;;;;;;15.44;nan;97774.81;4955635;28;20880;-75
2023/10/21 07:23:08;;;;;;;1.87;0.80;;;;;;;15.43;nan;97768.72;4956484;28;20204;-75
2023/10/21 07:25:36;;;;;;;2.77;0.70;;;;;;;15.44;nan;97780.13;4955233;28;20201;-75
2023/10/21 07:28:03;;;;;;;1.42;0.90;;;;;;;15.43;nan;97787.22;4953393;28;20230;-75
2023/10/21 07:30:29;;;;;;;1.17;0.80;;;;;;;15.42;nan;97793.53;4953225;28;20204;-74
2023/10/21 07:32:55;;;;;;;1.60;0.85;;;;;;;15.43;nan;97787.22;4955156;28;20456;-75
2023/10/21 07:35:20;;;;;;;1.10;0.80;;;;;;;15.48;nan;97805.25;4952945;28;20754;-75
2023/10/21 07:37:46;;;;;;;2.93;1.00;;;;;;;15.62;nan;97812.44;4955011;28;20241;-76
2023/10/21 07:40:12;;;;;;;0.77;0.70;;;;;;;15.72;nan;97806.97;4955746;28;20227;-75
2023/10/21 07:42:38;;;;;;;3.17;0.90;;;;;;;15.81;nan;97794.50;4957883;28;20238;-74
2023/10/21 07:45:05;;;;;;;1.30;0.93;;;;;;;15.86;nan;97802.75;4955528;28;20976;-75
2023/10/21 07:47:33;;;;;;;3.90;1.00;;;;;;;15.89;nan;97813.81;4956291;28;20797;-76
2023/10/21 07:49:59;;;;;;;0.80;0.70;;;;;;;15.94;nan;97818.59;4950122;28;20299;-76
2023/10/21 07:52:24;;;;;;;1.63;0.80;;;;;;;15.97;nan;97817.41;4956270;28;20199;-76
2023/10/21 07:54:52;;;;;;;0.80;0.70;;;;;;;15.99;nan;97834.78;4953140;28;20813;-76
2023/10/21 07:57:18;;;;;;;1.65;0.85;;;;;;;16.02;nan;97826.47;4952272;28;20475;-76
2023/10/21 07:59:44;;;;;;;3.10;1.10;;;;;;;16.04;nan;97832.44;4950264;28;20209;-75
2023/10/21 08:02:10;;;;;;;1.55;0.77;;;;;;;16.07;nan;97837.38;4957667;28;20707;-75
2023/10/21 08:04:35;;;;;;;0.70;0.70;;;;;;;16.09;nan;97835.38;4953291;28;20188;-76
2023/10/21 08:07:00;;;;;;;2.57;1.93;;;;;;;16.11;nan;97849.25;4954186;28;20579;-76
2023/10/21 08:09:26;;;;;;;3.23;0.90;;;;;;;16.13;nan;97854.38;4952153;28;20232;-76
2023/10/21 08:11:52;;;;;;;1.07;0.70;;;;;;;16.15;nan;97853.19;4955354;28;20209;-75
2023/10/21 08:14:18;;;;;;;3.25;1.05;;;;;;;16.22;nan;97858.59;4955619;28;20263;-76
2023/10/21 08:16:43;;;;;;;1.27;0.87;;;;;;;16.42;nan;97860.78;4954236;28;20220;-76
2023/10/21 08:19:09;;;;;;;1.33;0.80;;;;;;;17.15;nan;97854.84;4953574;28;20471;-77
2023/10/21 08:21:35;;;;;;;0.90;0.60;;;;;;;18.22;nan;97851.66;4956413;28;20233;-77
2023/10/21 08:24:02;;;;;;;1.60;0.80;;;;;;;19.15;nan;97863.09;4954725;28;20470;-77
2023/10/21 08:26:31;;;;;;;4.23;1.00;;;;;;;19.92;nan;97869.22;4955166;28;20890;-77
2023/10/21 08:28:58;;;;;;;1.00;0.80;;;;;;;20.10;nan;97861.50;4956206;28;20481;-75
2023/10/21 08:31:24;;;;;;;2.90;0.90;;;;;;;19.92;nan;97863.91;4940406;28;20474;-76
2023/10/21 08:33:52;;;;;;;4.27;1.30;;;;;;;19.96;nan;97856.34;4946446;28;20466;-76
2023/10/21 08:36:18;;;;;;;2.10;1.00;;;;;;;20.48;nan;97865.47;4947044;28;21008;-77
2023/10/21 08:38:45;;;;;;;1.87;0.80;;;;;;;21.01;nan;97862.84;4947646;28;20469;-75
2023/10/21 08:41:16;;;;;;;0.90;0.70;;;;;;;21.70;nan;97866.78;4960411;28;20457;-75
2023/10/21 08:43:46;;;;;;;2.10;0.87;;;;;;;21.94;nan;97881.28;4944450;28;20456;-74
2023/10/21 08:46:16;;;;;;;0.70;0.63;;;;;;;21.96;nan;97891.78;4958173;28;20947;-75
2023/10/21 08:48:45;;;;;;;1.43;0.70;;;;;;;21.99;nan;97878.81;4948227;23;20522;-78
2023/10/21 08:51:15;;;;;;;1.30;1.10;;;;;;;22.27;nan;97874.97;4882485;29;20977;-79
2023/10/21 08:53:44;;;;;;;1.40;0.67;;;;;;;22.98;nan;97871.19;4872383;29;20455;-77
2023/10/21 08:56:11;;;;;;;1.37;0.70;;;;;;;23.60;nan;97880.03;4870210;29;20483;-77
2023/10/21 08:58:37;;;;;;;2.73;0.80;;;;;;;23.78;nan;97879.22;4875191;29;20452;-77
2023/10/21 09:01:02;;;;;;;1.20;0.90;;;;;;;23.76;nan;97883.19;4873783;29;21054;-76
2023/10/21 09:03:28;;;;;;;0.80;0.80;;;;;;;23.74;nan;97882.59;4878921;29;20933;-77
2023/10/21 09:06:10;;;;;;;2.53;0.60;;;;;;;23.05;nan;97893.38;4881333;29;20217;-75
2023/10/21 09:08:37;;;;;;;1.30;0.70;;;;;;;22.19;nan;97899.28;4879991;29;20188;-76
2023/10/21 09:11:10;;;;;;;1.00;0.70;;;;;;;21.35;nan;97896.44;4881414;29;20469;-75
2023/10/21 09:13:38;;;;;;;1.97;0.87;;;;;;;20.57;nan;97900.78;4879425;29;20448;-76
2023/10/21 09:16:19;;;;;;;1.27;0.73;;;;;;;20.05;nan;97919.09;4877318;29;21017;-76
2023/10/21 09:19:04;;;;;;;0.80;0.67;;;;;;;19.62;nan;97920.09;4879261;29;20528;-76
2023/10/21 09:21:42;;;;;;;1.60;1.30;;;;;;;19.25;nan;97934.59;4878264;29;20487;-76
2023/10/21 09:24:12;;;;;;;1.90;1.17;;;;;;;18.87;nan;97937.56;4883245;29;20995;-77
2023/10/21 09:26:39;;;;;;;2.40;1.60;;;;;;;18.74;nan;97943.63;4882298;29;20471;-78
2023/10/21 09:29:13;;;;;;;1.23;0.97;;;;;;;18.72;nan;97940.28;4881590;29;20478;-78
2023/10/21 09:31:52;;;;;;;1.80;0.77;;;;;;;18.65;nan;97947.38;4882574;29;20470;-78
2023/10/21 09:34:24;;;;;;;2.40;0.70;;;;;;;18.62;nan;97938.97;4881711;29;20499;-78
2023/10/21 09:37:10;;;;;;;3.20;0.70;;;;;;;18.66;nan;97933.09;4882455;29;20526;-77
2023/10/21 09:39:36;;;;;;;5.33;0.77;;;;;;;18.69;nan;97943.34;4881063;29;20561;-79
2023/10/21 09:42:06;;;;;;;6.03;0.83;;;;;;;18.66;nan;97942.88;4880951;29;21001;-78
2023/10/21 09:44:36;;;;;;;1.87;0.60;;;;;;;18.72;nan;97942.94;4881243;29;20482;-78
2023/10/21 09:47:06;;;;;;;3.40;1.60;;;;;;;18.88;nan;97938.44;4880524;29;20499;-78
2023/10/21 09:49:39;;;;;;;0.80;0.77;;;;;;;19.13;nan;97944.97;4896809;29;20548;-79
2023/10/21 09:52:14;;;;;;;1.70;0.87;;;;;;;19.47;nan;97935.38;4900563;29;20474;-78
2023/10/21 09:54:44;;;;;;;1.53;1.17;;;;;;;19.70;nan;97943.13;4899149;29;20468;-78
2023/10/21 09:57:11;;;;;;;1.57;0.60;;;;;;;19.76;nan;97930.84;4903968;29;20509;-77
2023/10/21 09:59:37;;;;;;;0.70;0.60;;;;;;;19.73;nan;97931.25;4897319;29;20458;-77
2023/10/21 10:02:05;;;;;;;1.00;0.70;;;;;;;19.65;nan;97934.84;4900735;29;20553;-77
2023/10/21 10:04:31;;;;;;;0.73;0.60;;;;;;;19.54;nan;97941.56;4901932;29;20488;-77
2023/10/21 10:06:58;;;;;;;1.43;0.70;;;;;;;19.31;nan;97939.16;4887319;29;20453;-77
2023/10/21 10:09:26;;;;;;;0.80;0.70;;;;;;;19.06;nan;97937.94;4901339;29;20462;-77
2023/10/21 10:11:58;;;;;;;2.23;0.90;;;;;;;18.82;nan;97945.31;4898163;29;20481;-77
2023/10/21 10:14:30;;;;;;;9.30;1.43;;;;;;;18.67;nan;97936.56;4900896;29;20469;-77
2023/10/21 10:16:56;;;;;;;0.80;0.70;;;;;;;18.58;nan;97946.50;4901502;29;20470;-76
2023/10/21 10:19:37;;;;;;;5.40;0.80;;;;;;;18.52;nan;97939.25;4900279;29;20476;-77
2023/10/21 10:22:20;;;;;;;1.17;0.67;;;;;;;18.51;nan;97932.31;4898424;29;20215;-77
2023/10/21 10:24:56;;;;;;;0.90;0.70;;;;;;;18.51;nan;97927.81;4898269;29;20466;-78
2023/10/21 10:27:35;;;;;;;1.43;1.00;;;;;;;18.62;nan;97946.94;4878391;29;20462;-77
2023/10/21 10:30:01;;;;;;;0.87;0.80;;;;;;;18.67;nan;97948.00;4900603;29;20528;-77
2023/10/21 10:32:30;;;;;;;3.67;0.67;;;;;;;18.73;nan;97946.44;4891383;29;20466;-77
2023/10/21 10:34:57;;;;;;;1.43;0.80;;;;;;;18.76;nan;97948.75;4888681;29;20226;-77
2023/10/21 10:37:34;;;;;;;1.30;0.60;;;;;;;18.74;nan;97932.97;4891190;29;20478;-77
2023/10/21 10:40:05;;;;;;;0.80;0.80;;;;;;;18.71;nan;97937.81;4892770;29;21003;-77
2023/10/21 10:42:34;;;;;;;2.80;0.93;;;;;;;18.73;nan;97941.94;4893926;29;20466;-77
2023/10/21 10:44:59;;;;;;;0.90;0.70;;;;;;;18.77;nan;97943.25;4890017;29;20462;-77
2023/10/21 10:47:26;;;;;;;1.30;0.90;;;;;;;18.75;nan;97944.44;4892032;29;20470;-77
2023/10/21 10:50:00;;;;;;;1.93;0.90;;;;;;;18.79;nan;97927.91;4900708;29;20222;-77
2023/10/21 10:52:32;;;;;;;6.53;1.10;;;;;;;18.93;nan;97922.69;4900854;29;21105;-77
2023/10/21 10:55:03;;;;;;;17.77;1.40;;;;;;;19.08;nan;97918.09;4892386;29;21204;-77
2023/10/21 10:57:29;;;;;;;1.83;0.90;;;;;;;19.22;nan;97929.66;4895105;29;21223;-77
2023/10/21 10:59:55;;;;;;;3.73;0.90;;;;;;;19.30;nan;97926.84;4892910;29;20466;-77
2023/10/21 11:02:20;;;;;;;1.70;0.97;;;;;;;19.40;nan;97931.84;4905340;29;20465;-78
2023/10/21 11:04:49;;;;;;;1.00;0.80;;;;;;;19.55;nan;97934.38;4904947;29;20206;-76
2023/10/21 11:07:21;;;;;;;1.57;0.80;;;;;;;19.66;nan;97936.56;4908052;29;20202;-77
2023/10/21 11:09:46;;;;;;;2.77;0.87;;;;;;;19.78;nan;97934.16;4905990;29;20481;-77
2023/10/21 11:12:14;;;;;;;0.90;0.73;;;;;;;19.78;nan;97926.97;4908407;29;20446;-77
2023/10/21 11:14:40;;;;;;;2.00;0.80;;;;;;;19.72;nan;97919.78;4903422;29;20247;-76
2023/10/21 11:17:06;;;;;;;3.40;1.63;;;;;;;19.69;nan;97925.50;4901757;29;20478;-77
2023/10/21 11:19:32;;;;;;;12.23;1.60;;;;;;;19.66;nan;97928.56;4906006;29;20484;-76
2023/10/21 11:21:58;;;;;;;2.13;1.93;;;;;;;19.62;nan;97933.41;4903791;29;20210;-76
2023/10/21 11:24:26;;;;;;;1.07;0.97;;;;;;;19.67;nan;97930.19;4901594;29;20521;-77
2023/10/21 11:26:52;;;;;;;1.73;1.10;;;;;;;19.72;nan;97933.09;4905636;29;20195;-77
2023/10/21 11:29:18;;;;;;;1.03;0.70;;;;;;;19.74;nan;97931.06;4905959;29;20455;-78
2023/10/21 11:31:44;;;;;;;1.93;0.70;;;;;;;19.81;nan;97934.56;4910567;29;20488;-77
2023/10/21 11:34:14;;;;;;;1.17;0.70;;;;;;;19.86;nan;97928.66;4907628;29;20494;-77
2023/10/21 11:36:46;;;;;;;1.10;0.80;;;;;;;19.95;nan;97924.78;4909480;29;20221;-78
2023/10/21 11:39:14;;;;;;;0.70;0.70;;;;;;;19.98;nan;97928.91;4907143;29;20554;-78
2023/10/21 11:41:50;;;;;;;3.13;0.70;;;;;;;19.91;nan;97928.06;4902953;29;20556;-77
2023/10/21 11:44:20;;;;;;;1.77;0.63;;;;;;;19.80;nan;97921.44;4908407;29;20465;-77
2023/10/21 11:46:46;;;;;;;0.80;0.70;;;;;;;19.67;nan;97920.34;4923208;29;20444;-74
2023/10/21 11:49:13;;;;;;;0.80;0.60;;;;;;;19.62;nan;97927.25;4929441;28;20486;-76